Time;durP1;ratioP1;P1;durP2;ratioP2;P2;SDS_P1;SDS_P2;PMS_P1;PMS_P2;Temp;Humidity;BMP_temperature;BMP_pressure;BME280_temperature;BME280_humidity;BME280_pressure;Samples;Min_cycle;Max_cycle;Signal;HPM_P1;HPM_P2
2024/03/23 00:00:29;;;;;;;10.98;2.55;;;;;;;;;;6160395;29;20291;-61
2024/03/23 00:03:35;;;;;;;18.05;2.88;;;;;;;;;;6160527;29;20290;-60
2024/03/23 00:06:42;;;;;;;10.15;2.35;;;;;;;;;;6160553;29;20298;-61
2024/03/23 00:09:47;;;;;;;11.47;2.40;;;;;;;;;;6160428;28;20294;-60
2024/03/23 00:12:54;;;;;;;10.03;2.53;;;;;;;;;;6140544;29;20295;-59
2024/03/23 00:16:00;;;;;;;19.23;2.77;;;;;;;;;;6136192;29;20306;-59
2024/03/23 00:19:06;;;;;;;7.77;2.60;;;;;;;;;;6135868;29;20472;-60
2024/03/23 00:22:13;;;;;;;13.03;2.90;;;;;;;;;;6121323;29;20303;-61
2024/03/23 00:25:19;;;;;;;11.63;2.40;;;;;;;;;;6136371;29;20294;-59
2024/03/23 00:28:26;;;;;;;12.00;2.50;;;;;;;;;;6136656;29;20379;-59
2024/03/23 00:31:32;;;;;;;9.73;2.47;;;;;;;;;;6136079;29;20317;-60
2024/03/23 00:34:38;;;;;;;7.70;2.60;;;;;;;;;;6136047;29;20306;-60
2024/03/23 00:37:45;;;;;;;17.30;2.70;;;;;;;;;;6135448;29;20325;-60
2024/03/23 00:40:50;;;;;;;8.03;2.40;;;;;;;;;;6143162;28;20298;-61
2024/03/23 00:43:57;;;;;;;13.50;3.07;;;;;;;;;;6160104;28;20298;-60
2024/03/23 00:47:02;;;;;;;10.90;2.63;;;;;;;;;;6160120;28;20298;-59
2024/03/23 00:50:09;;;;;;;7.83;2.40;;;;;;;;;;6162693;28;20293;-60
2024/03/23 00:53:16;;;;;;;6.33;1.83;;;;;;;;;;6149612;28;20425;-59
2024/03/23 00:56:19;;;;;;;10.97;2.20;;;;;;;;;;6164505;28;20297;-59
2024/03/23 00:59:26;;;;;;;6.47;2.40;;;;;;;;;;6164473;28;20427;-59
2024/03/23 01:02:28;;;;;;;6.90;2.10;;;;;;;;;;6164426;28;20555;-59
2024/03/23 01:05:32;;;;;;;9.67;2.00;;;;;;;;;;6164360;28;20347;-59
2024/03/23 01:08:34;;;;;;;9.77;2.20;;;;;;;;;;6164853;28;20305;-60
2024/03/23 01:11:38;;;;;;;7.03;2.23;;;;;;;;;;6170087;28;20311;-58
2024/03/23 01:14:40;;;;;;;7.10;1.83;;;;;;;;;;6140457;29;20294;-59
2024/03/23 01:17:43;;;;;;;7.07;2.10;;;;;;;;;;6140522;29;20303;-59
2024/03/23 01:20:44;;;;;;;9.63;2.20;;;;;;;;;;6140121;29;20587;-60
2024/03/23 01:23:47;;;;;;;7.33;1.80;;;;;;;;;;6140523;29;20295;-60
2024/03/23 01:26:52;;;;;;;7.17;2.17;;;;;;;;;;6140169;29;20543;-59
2024/03/23 01:29:54;;;;;;;5.57;2.03;;;;;;;;;;6139739;29;20298;-60
2024/03/23 01:32:57;;;;;;;8.20;1.67;;;;;;;;;;6140230;29;20295;-59
2024/03/23 01:35:59;;;;;;;7.40;1.80;;;;;;;;;;6139441;29;20302;-59
2024/03/23 01:39:01;;;;;;;6.43;1.77;;;;;;;;;;6139010;29;20316;-59
2024/03/23 01:42:06;;;;;;;7.60;2.10;;;;;;;;;;6157657;29;20298;-59
2024/03/23 01:45:09;;;;;;;7.00;1.50;;;;;;;;;;6163300;29;20313;-59
2024/03/23 01:48:12;;;;;;;4.97;1.80;;;;;;;;;;6163795;29;20302;-60
2024/03/23 01:51:15;;;;;;;10.80;1.90;;;;;;;;;;6163295;29;20297;-60
2024/03/23 01:54:17;;;;;;;6.77;2.10;;;;;;;;;;6163102;28;20543;-60
2024/03/23 01:57:22;;;;;;;5.60;2.00;;;;;;;;;;6163743;29;20306;-60
2024/03/23 02:00:24;;;;;;;4.53;1.77;;;;;;;;;;6162069;28;20296;-60
2024/03/23 02:03:28;;;;;;;8.73;2.00;;;;;;;;;;6162295;28;20289;-60
2024/03/23 02:06:30;;;;;;;4.53;1.87;;;;;;;;;;6162679;29;20464;-60
2024/03/23 02:09:34;;;;;;;7.40;1.80;;;;;;;;;;6163105;28;20582;-60
2024/03/23 02:12:37;;;;;;;3.83;1.70;;;;;;;;;;6145287;29;20303;-60
2024/03/23 02:15:40;;;;;;;7.17;1.60;;;;;;;;;;6139330;29;20290;-61
2024/03/23 02:18:42;;;;;;;6.43;1.70;;;;;;;;;;6139135;29;20337;-60
2024/03/23 02:21:46;;;;;;;6.50;2.20;;;;;;;;;;6138413;29;20318;-60
2024/03/23 02:24:50;;;;;;;4.97;2.10;;;;;;;;;;6138834;29;20303;-60
2024/03/23 02:27:53;;;;;;;6.17;1.67;;;;;;;;;;6139020;29;20305;-60
2024/03/23 02:30:55;;;;;;;6.07;1.73;;;;;;;;;;6138438;29;20491;-60
2024/03/23 02:33:58;;;;;;;3.33;1.63;;;;;;;;;;6122746;29;20362;-59
2024/03/23 02:37:00;;;;;;;10.00;2.03;;;;;;;;;;6138263;29;20470;-60
2024/03/23 02:40:05;;;;;;;3.93;1.40;;;;;;;;;;6139585;29;20294;-60
2024/03/23 02:43:08;;;;;;;8.93;1.90;;;;;;;;;;6162427;29;20308;-60
2024/03/23 02:46:09;;;;;;;6.53;2.07;;;;;;;;;;6162143;28;20300;-60
2024/03/23 02:49:12;;;;;;;3.03;2.20;;;;;;;;;;6160896;28;20289;-60
2024/03/23 02:52:14;;;;;;;8.20;1.90;;;;;;;;;;6162330;29;20309;-59
2024/03/23 02:55:19;;;;;;;4.83;1.83;;;;;;;;;;6161851;29;20494;-61
2024/03/23 02:58:21;;;;;;;7.10;2.03;;;;;;;;;;6162145;29;20230;-60
2024/03/23 03:01:23;;;;;;;7.23;1.80;;;;;;;;;;6177542;28;20297;-60
2024/03/23 03:04:26;;;;;;;9.57;2.30;;;;;;;;;;6161763;28;20289;-60
2024/03/23 03:07:28;;;;;;;9.30;2.60;;;;;;;;;;6162156;29;20288;-60
2024/03/23 03:10:34;;;;;;;8.47;1.83;;;;;;;;;;6159918;29;20293;-59
2024/03/23 03:13:36;;;;;;;7.67;2.03;;;;;;;;;;6137841;29;20299;-60
2024/03/23 03:16:39;;;;;;;5.73;1.80;;;;;;;;;;6137689;29;20301;-60
2024/03/23 03:19:41;;;;;;;11.37;2.37;;;;;;;;;;6137231;29;20302;-60
2024/03/23 03:22:43;;;;;;;8.30;2.30;;;;;;;;;;6138202;29;20470;-59
2024/03/23 03:25:47;;;;;;;11.00;1.90;;;;;;;;;;6137565;29;20299;-59
2024/03/23 03:28:49;;;;;;;8.17;2.03;;;;;;;;;;6137567;29;20292;-60
2024/03/23 03:31:51;;;;;;;13.67;2.13;;;;;;;;;;6137303;29;20296;-59
2024/03/23 03:34:54;;;;;;;8.03;2.20;;;;;;;;;;6137249;29;20235;-59
2024/03/23 03:37:56;;;;;;;9.73;1.93;;;;;;;;;;6121661;29;20641;-59
2024/03/23 03:41:00;;;;;;;9.13;2.20;;;;;;;;;;6145551;28;20291;-59
2024/03/23 03:44:02;;;;;;;14.27;2.70;;;;;;;;;;6143918;28;20459;-59
2024/03/23 03:47:05;;;;;;;12.10;2.23;;;;;;;;;;6160622;28;20301;-59
2024/03/23 03:50:07;;;;;;;9.87;2.00;;;;;;;;;;6160490;28;20305;-59
2024/03/23 03:53:10;;;;;;;12.17;2.37;;;;;;;;;;6160868;28;20476;-59
2024/03/23 03:56:13;;;;;;;15.00;2.37;;;;;;;;;;6160702;28;20297;-60
2024/03/23 03:59:16;;;;;;;7.13;2.17;;;;;;;;;;6160325;28;20312;-59
2024/03/23 04:02:18;;;;;;;7.73;2.43;;;;;;;;;;6147409;28;20292;-59
2024/03/23 04:05:21;;;;;;;8.90;2.10;;;;;;;;;;6152137;28;20305;-59
2024/03/23 04:08:24;;;;;;;15.27;2.50;;;;;;;;;;6112767;29;20306;-59
2024/03/23 04:11:28;;;;;;;9.23;2.23;;;;;;;;;;6142074;28;20289;-60
2024/03/23 04:14:30;;;;;;;8.30;1.73;;;;;;;;;;6160204;28;20290;-59
2024/03/23 04:17:34;;;;;;;13.03;2.27;;;;;;;;;;6160533;28;20315;-59
2024/03/23 04:20:37;;;;;;;12.03;2.93;;;;;;;;;;6140441;29;20308;-59
2024/03/23 04:23:38;;;;;;;11.07;2.43;;;;;;;;;;6135462;29;20293;-59
2024/03/23 04:26:43;;;;;;;9.73;2.53;;;;;;;;;;6137058;29;20301;-61
2024/03/23 04:29:47;;;;;;;9.63;2.20;;;;;;;;;;6136436;29;20293;-60
2024/03/23 04:32:50;;;;;;;16.73;2.43;;;;;;;;;;6136500;29;20290;-59
2024/03/23 04:35:52;;;;;;;11.20;2.23;;;;;;;;;;6141758;29;20301;-59
2024/03/23 04:38:55;;;;;;;11.77;2.83;;;;;;;;;;6159873;29;20489;-59
2024/03/23 04:41:59;;;;;;;13.90;2.70;;;;;;;;;;6144010;29;20538;-60
2024/03/23 04:45:02;;;;;;;15.77;2.63;;;;;;;;;;6135647;29;20296;-60
2024/03/23 04:48:05;;;;;;;11.57;2.20;;;;;;;;;;6135653;29;20296;-60
2024/03/23 04:51:09;;;;;;;10.10;2.20;;;;;;;;;;6136506;29;20274;-60
2024/03/23 04:54:12;;;;;;;18.00;2.47;;;;;;;;;;6135833;29;20290;-60
2024/03/23 04:57:17;;;;;;;8.73;2.43;;;;;;;;;;6136170;29;20297;-60
2024/03/23 05:00:23;;;;;;;11.77;2.20;;;;;;;;;;6135778;29;20471;-60
2024/03/23 05:03:25;;;;;;;10.60;2.53;;;;;;;;;;6135687;29;20293;-59
2024/03/23 05:06:28;;;;;;;8.50;2.70;;;;;;;;;;6135831;29;20614;-59
2024/03/23 05:09:32;;;;;;;12.07;2.20;;;;;;;;;;6136993;29;20303;-59
2024/03/23 05:12:36;;;;;;;6.87;2.13;;;;;;;;;;6159946;29;20301;-59
2024/03/23 05:15:38;;;;;;;15.43;2.83;;;;;;;;;;6159387;29;20586;-59
2024/03/23 05:18:41;;;;;;;8.80;2.27;;;;;;;;;;6159001;28;20293;-59
2024/03/23 05:21:43;;;;;;;10.07;2.20;;;;;;;;;;6159771;29;20286;-60
2024/03/23 05:24:46;;;;;;;16.23;2.67;;;;;;;;;;6159352;29;20312;-59
2024/03/23 05:27:49;;;;;;;9.53;2.30;;;;;;;;;;6159397;28;20588;-59
2024/03/23 05:30:53;;;;;;;15.80;2.63;;;;;;;;;;6159779;29;20296;-60
2024/03/23 05:33:55;;;;;;;17.83;3.03;;;;;;;;;;6159209;29;20343;-59
2024/03/23 05:36:57;;;;;;;15.87;2.67;;;;;;;;;;6163353;28;20319;-59
2024/03/23 05:39:59;;;;;;;8.87;2.33;;;;;;;;;;6162410;29;20533;-60
2024/03/23 05:43:04;;;;;;;11.23;2.50;;;;;;;;;;6140027;29;20561;-60
2024/03/23 05:46:07;;;;;;;15.37;2.57;;;;;;;;;;6140174;29;20283;-60
2024/03/23 05:49:10;;;;;;;8.97;2.60;;;;;;;;;;6139625;29;20293;-60
2024/03/23 05:52:12;;;;;;;5.67;2.27;;;;;;;;;;6139928;29;20298;-60
2024/03/23 05:55:15;;;;;;;13.40;2.50;;;;;;;;;;6139604;29;20301;-60
2024/03/23 05:58:18;;;;;;;11.80;2.63;;;;;;;;;;6139522;29;20306;-59
2024/03/23 06:01:21;;;;;;;12.23;3.23;;;;;;;;;;6139916;29;20285;-60
2024/03/23 06:04:24;;;;;;;18.17;2.57;;;;;;;;;;6139637;29;20297;-59
2024/03/23 06:07:25;;;;;;;11.63;3.00;;;;;;;;;;6139644;29;20306;-60
2024/03/23 06:10:29;;;;;;;11.00;2.57;;;;;;;;;;6131966;29;20498;-59
2024/03/23 06:13:33;;;;;;;10.53;2.60;;;;;;;;;;6162971;28;20317;-59
2024/03/23 06:16:35;;;;;;;7.03;2.20;;;;;;;;;;6163345;29;20308;-59
2024/03/23 06:19:38;;;;;;;14.27;2.40;;;;;;;;;;6161962;29;20511;-59
2024/03/23 06:22:40;;;;;;;15.20;2.70;;;;;;;;;;6162366;28;20563;-59
2024/03/23 06:25:43;;;;;;;8.43;2.50;;;;;;;;;;6146162;28;20448;-60
2024/03/23 06:28:47;;;;;;;16.20;3.13;;;;;;;;;;6178526;28;20315;-60
2024/03/23 06:31:53;;;;;;;9.67;2.23;;;;;;;;;;6136899;29;20413;-61
2024/03/23 06:34:56;;;;;;;11.90;3.13;;;;;;;;;;6115105;29;20294;-58
2024/03/23 06:37:59;;;;;;;21.03;3.20;;;;;;;;;;6114842;29;20301;-59
2024/03/23 06:41:02;;;;;;;8.97;2.50;;;;;;;;;;6133155;28;20237;-59
2024/03/23 06:44:07;;;;;;;12.63;2.83;;;;;;;;;;6162068;28;20290;-59
2024/03/23 06:47:09;;;;;;;9.93;2.60;;;;;;;;;;6161788;28;20290;-59
2024/03/23 06:50:11;;;;;;;17.97;2.67;;;;;;;;;;6161759;28;20322;-59
2024/03/23 06:53:14;;;;;;;6.60;2.70;;;;;;;;;;6161854;28;20289;-61
2024/03/23 06:56:16;;;;;;;15.23;2.83;;;;;;;;;;6146497;28;20301;-60
2024/03/23 06:59:20;;;;;;;11.27;2.63;;;;;;;;;;6161931;28;20286;-60
2024/03/23 07:02:22;;;;;;;17.70;2.90;;;;;;;;;;6162441;28;20293;-60
2024/03/23 07:05:25;;;;;;;13.30;2.70;;;;;;;;;;6161296;28;20468;-60
2024/03/23 07:08:27;;;;;;;12.20;2.57;;;;;;;;;;6161651;28;20333;-60
2024/03/23 07:11:30;;;;;;;15.40;3.40;;;;;;;;;;6145057;29;20294;-60
2024/03/23 07:14:35;;;;;;;13.80;2.53;;;;;;;;;;6137447;29;20299;-60
2024/03/23 07:17:37;;;;;;;14.73;2.53;;;;;;;;;;6138089;29;20290;-60
2024/03/23 07:20:39;;;;;;;12.33;2.87;;;;;;;;;;6137241;29;20396;-59
2024/03/23 07:23:44;;;;;;;11.60;2.50;;;;;;;;;;6137492;29;20603;-60
2024/03/23 07:26:47;;;;;;;13.80;2.87;;;;;;;;;;6138082;29;20305;-61
2024/03/23 07:29:50;;;;;;;19.07;2.80;;;;;;;;;;6137379;29;20303;-60
2024/03/23 07:32:53;;;;;;;13.73;2.50;;;;;;;;;;6137091;29;20315;-60
2024/03/23 07:35:55;;;;;;;10.83;2.37;;;;;;;;;;6137972;29;20294;-60
2024/03/23 07:38:58;;;;;;;8.33;2.07;;;;;;;;;;6137027;29;20302;-60
2024/03/23 07:42:01;;;;;;;18.33;2.83;;;;;;;;;;6138675;29;20293;-60
2024/03/23 07:45:05;;;;;;;17.90;2.73;;;;;;;;;;6160808;29;20301;-60
2024/03/23 07:48:08;;;;;;;10.07;2.70;;;;;;;;;;6160535;28;20314;-60
2024/03/23 07:51:11;;;;;;;8.80;2.73;;;;;;;;;;6161239;29;20470;-60
2024/03/23 07:54:14;;;;;;;13.23;3.00;;;;;;;;;;6160918;29;20299;-61
2024/03/23 07:57:16;;;;;;;19.37;2.80;;;;;;;;;;6161417;28;20290;-61
2024/03/23 08:00:20;;;;;;;10.70;2.70;;;;;;;;;;6160700;29;20297;-60
2024/03/23 08:03:22;;;;;;;13.93;2.73;;;;;;;;;;6160700;28;20297;-59
2024/03/23 08:06:25;;;;;;;12.40;2.57;;;;;;;;;;6161074;29;20285;-59
2024/03/23 08:09:27;;;;;;;13.27;2.47;;;;;;;;;;6159880;28;20297;-60
2024/03/23 08:12:30;;;;;;;12.97;2.60;;;;;;;;;;6136743;29;20579;-60
2024/03/23 08:15:33;;;;;;;9.83;2.80;;;;;;;;;;6136123;29;20294;-61
2024/03/23 08:18:36;;;;;;;10.30;2.17;;;;;;;;;;6136436;29;20303;-60
2024/03/23 08:21:38;;;;;;;4.63;2.07;;;;;;;;;;6136716;29;20294;-59
2024/03/23 08:24:41;;;;;;;13.25;2.85;;;;;;;;;;6135846;29;20303;-60
2024/03/23 08:27:44;;;;;;;11.37;2.53;;;;;;;;;;6136023;29;20295;-63
2024/03/23 08:30:49;;;;;;;12.00;2.50;;;;;;;;;;6136560;29;20291;-62
2024/03/23 08:33:51;;;;;;;10.25;2.40;;;;;;;;;;6136321;29;20298;-60
2024/03/23 08:36:53;;;;;;;12.37;2.73;;;;;;;;;;6136543;29;20296;-61
2024/03/23 08:39:55;;;;;;;11.18;2.28;;;;;;;;;;6136110;29;20359;-58
2024/03/23 08:42:58;;;;;;;11.93;2.63;;;;;;;;;;6159472;28;20289;-59
2024/03/23 08:46:05;;;;;;;9.67;2.80;;;;;;;;;;6160412;29;20300;-60
2024/03/23 08:49:08;;;;;;;11.13;2.22;;;;;;;;;;6159551;29;20323;-62
2024/03/23 08:52:10;;;;;;;13.80;2.78;;;;;;;;;;6160225;28;20297;-59
2024/03/23 08:55:13;;;;;;;11.00;2.50;;;;;;;;;;6159253;29;20599;-59
2024/03/23 08:58:17;;;;;;;11.82;2.25;;;;;;;;;;6143389;28;20302;-60
2024/03/23 09:01:21;;;;;;;15.30;2.72;;;;;;;;;;6160287;29;20470;-61
2024/03/23 09:04:23;;;;;;;15.55;2.75;;;;;;;;;;6159677;29;20604;-60
2024/03/23 09:07:26;;;;;;;10.48;2.50;;;;;;;;;;6159870;29;20586;-60
2024/03/23 09:10:28;;;;;;;15.25;2.80;;;;;;;;;;6128614;29;20291;-60
2024/03/23 09:13:30;;;;;;;14.23;2.55;;;;;;;;;;6117012;29;20416;-60
2024/03/23 09:16:35;;;;;;;15.95;2.70;;;;;;;;;;6117450;29;20296;-60
2024/03/23 09:19:36;;;;;;;20.75;3.10;;;;;;;;;;6116686;29;20315;-60
2024/03/23 09:22:39;;;;;;;9.05;2.67;;;;;;;;;;6117185;29;20295;-59
2024/03/23 09:25:41;;;;;;;16.90;3.10;;;;;;;;;;6116307;29;20364;-61
2024/03/23 09:28:44;;;;;;;11.82;3.13;;;;;;;;;;6117090;29;20299;-61
2024/03/23 09:31:48;;;;;;;14.20;2.35;;;;;;;;;;6117552;29;20618;-61
2024/03/23 09:34:50;;;;;;;15.60;2.78;;;;;;;;;;6116938;29;20353;-61
2024/03/23 09:37:53;;;;;;;17.73;3.10;;;;;;;;;;6100871;29;20599;-61
2024/03/23 09:40:56;;;;;;;16.48;2.80;;;;;;;;;;6133612;28;20302;-60
2024/03/23 09:43:59;;;;;;;15.35;2.95;;;;;;;;;;6164128;28;20298;-60
2024/03/23 09:47:03;;;;;;;11.70;2.30;;;;;;;;;;6164432;28;20298;-60
2024/03/23 09:50:07;;;;;;;10.98;2.58;;;;;;;;;;6163723;28;20298;-60
2024/03/23 09:53:12;;;;;;;27.63;3.38;;;;;;;;;;6163886;28;20286;-61
2024/03/23 09:56:14;;;;;;;10.90;2.45;;;;;;;;;;6148419;28;20286;-61
2024/03/23 09:59:16;;;;;;;18.52;3.38;;;;;;;;;;6163814;28;20289;-60
2024/03/23 10:02:20;;;;;;;15.75;3.60;;;;;;;;;;6164119;28;20586;-60
2024/03/23 10:05:24;;;;;;;15.98;2.60;;;;;;;;;;6163645;28;20290;-61
2024/03/23 10:08:26;;;;;;;20.00;3.15;;;;;;;;;;6163477;28;20290;-62
2024/03/23 10:11:29;;;;;;;16.38;3.25;;;;;;;;;;6147173;29;20299;-60
2024/03/23 10:14:31;;;;;;;13.38;2.97;;;;;;;;;;6139414;29;20291;-59
2024/03/23 10:17:35;;;;;;;15.55;2.38;;;;;;;;;;6139432;29;20295;-59
2024/03/23 10:20:37;;;;;;;13.80;2.70;;;;;;;;;;6138059;29;20299;-60
2024/03/23 10:23:41;;;;;;;11.55;2.75;;;;;;;;;;6137076;29;20291;-60
2024/03/23 10:26:43;;;;;;;18.05;2.97;;;;;;;;;;6137386;29;20295;-61
2024/03/23 10:29:45;;;;;;;15.25;2.65;;;;;;;;;;6138528;29;20302;-60
2024/03/23 10:32:50;;;;;;;13.48;2.65;;;;;;;;;;6138767;29;20299;-62
2024/03/23 10:35:53;;;;;;;10.45;2.78;;;;;;;;;;6138932;29;20303;-60
2024/03/23 10:38:58;;;;;;;9.65;2.35;;;;;;;;;;6138508;29;20299;-60
2024/03/23 10:42:02;;;;;;;17.20;3.10;;;;;;;;;;6155275;28;20440;-60
2024/03/23 10:45:06;;;;;;;11.45;2.50;;;;;;;;;;6161569;29;20290;-59
2024/03/23 10:48:09;;;;;;;13.93;2.78;;;;;;;;;;6162138;28;20567;-60
2024/03/23 10:51:12;;;;;;;11.18;2.78;;;;;;;;;;6162705;29;20294;-60
2024/03/23 10:54:14;;;;;;;14.25;2.45;;;;;;;;;;6161791;29;20326;-60
2024/03/23 10:57:19;;;;;;;10.10;2.33;;;;;;;;;;6161833;29;20566;-60
2024/03/23 11:00:21;;;;;;;11.90;2.38;;;;;;;;;;6161232;29;20482;-60
2024/03/23 11:03:38;;;;;;;14.02;2.40;;;;;;;;;;6160854;28;20475;-60
2024/03/23 11:06:41;;;;;;;6.25;2.10;;;;;;;;;;6160638;28;20294;-59
2024/03/23 11:09:45;;;;;;;12.60;2.28;;;;;;;;;;6157390;29;20603;-60
2024/03/23 11:12:47;;;;;;;15.32;3.25;;;;;;;;;;6137414;29;20299;-60
2024/03/23 11:15:49;;;;;;;15.40;2.42;;;;;;;;;;6138240;29;20302;-60
2024/03/23 11:18:53;;;;;;;20.80;3.15;;;;;;;;;;6136646;29;20295;-59
2024/03/23 11:21:55;;;;;;;7.95;2.50;;;;;;;;;;6137806;29;20303;-60
2024/03/23 11:24:58;;;;;;;11.70;2.20;;;;;;;;;;6135843;29;20315;-60
2024/03/23 11:28:11;;;;;;;19.83;2.50;;;;;;;;;;6137072;29;20310;-60
2024/03/23 11:31:15;;;;;;;13.45;2.80;;;;;;;;;;6137089;29;20303;-59
2024/03/23 11:34:19;;;;;;;9.13;2.20;;;;;;;;;;6136434;29;20291;-61
2024/03/23 11:37:22;;;;;;;15.05;2.28;;;;;;;;;;6137632;29;20298;-61
2024/03/23 11:40:24;;;;;;;15.43;2.42;;;;;;;;;;6142135;28;20420;-61
2024/03/23 11:43:26;;;;;;;12.02;2.53;;;;;;;;;;6162169;28;20307;-59
2024/03/23 11:46:28;;;;;;;13.35;2.50;;;;;;;;;;6163054;29;20298;-60
2024/03/23 11:49:32;;;;;;;12.32;2.50;;;;;;;;;;6162607;29;20297;-59
2024/03/23 11:52:36;;;;;;;9.35;2.33;;;;;;;;;;6162789;29;20289;-59
2024/03/23 11:55:49;;;;;;;16.17;3.08;;;;;;;;;;6162237;29;20560;-61
2024/03/23 11:58:53;;;;;;;10.30;2.80;;;;;;;;;;6160716;28;20298;-60
2024/03/23 12:01:55;;;;;;;12.10;2.70;;;;;;;;;;6157696;29;20397;-60
2024/03/23 12:05:14;;;;;;;11.80;2.67;;;;;;;;;;6148211;29;20275;-60
2024/03/23 12:08:19;;;;;;;17.38;2.53;;;;;;;;;;6149061;28;20298;-59
2024/03/23 12:11:23;;;;;;;14.65;2.40;;;;;;;;;;6149581;29;20278;-59
2024/03/23 12:14:26;;;;;;;17.42;2.80;;;;;;;;;;6160060;28;20294;-59
2024/03/23 12:17:29;;;;;;;11.52;2.60;;;;;;;;;;6160100;28;20286;-61
2024/03/23 12:20:33;;;;;;;12.35;2.60;;;;;;;;;;6149199;29;20299;-60
2024/03/23 12:23:35;;;;;;;7.10;2.03;;;;;;;;;;6135502;29;20307;-60
2024/03/23 12:26:39;;;;;;;13.40;2.47;;;;;;;;;;6135851;29;20303;-59
2024/03/23 12:29:43;;;;;;;11.10;2.83;;;;;;;;;;6135088;29;20291;-59
2024/03/23 12:32:45;;;;;;;6.18;2.15;;;;;;;;;;6135232;29;20290;-62
2024/03/23 12:35:49;;;;;;;14.43;2.65;;;;;;;;;;6135675;29;20603;-60
2024/03/23 12:38:51;;;;;;;9.65;2.47;;;;;;;;;;6155650;28;20298;-60
2024/03/23 12:41:54;;;;;;;6.57;2.22;;;;;;;;;;6159586;29;20286;-61
2024/03/23 12:44:56;;;;;;;10.65;2.25;;;;;;;;;;6159309;28;20294;-60
2024/03/23 12:47:59;;;;;;;9.02;2.45;;;;;;;;;;6159816;28;20459;-61
2024/03/23 12:51:03;;;;;;;12.13;2.30;;;;;;;;;;6160463;28;20575;-60
2024/03/23 12:54:06;;;;;;;9.75;2.83;;;;;;;;;;6160114;29;20298;-61
2024/03/23 12:57:08;;;;;;;16.05;2.80;;;;;;;;;;6160565;29;20290;-60
2024/03/23 13:00:12;;;;;;;6.95;2.10;;;;;;;;;;6160086;29;20318;-60
2024/03/23 13:03:15;;;;;;;8.35;2.42;;;;;;;;;;6159600;28;20282;-61
2024/03/23 13:06:20;;;;;;;6.35;2.35;;;;;;;;;;6160399;29;20282;-61
2024/03/23 13:09:22;;;;;;;9.60;1.92;;;;;;;;;;6159810;29;20293;-62
2024/03/23 13:12:24;;;;;;;9.35;2.30;;;;;;;;;;6152421;29;20290;-60
2024/03/23 13:15:27;;;;;;;9.60;1.83;;;;;;;;;;6159525;29;20293;-61
2024/03/23 13:18:30;;;;;;;8.95;2.70;;;;;;;;;;6159673;28;20290;-61
2024/03/23 13:21:34;;;;;;;8.85;2.90;;;;;;;;;;6159964;28;20298;-61
2024/03/23 13:24:36;;;;;;;7.60;1.88;;;;;;;;;;6159628;29;20298;-59
2024/03/23 13:27:38;;;;;;;7.68;2.72;;;;;;;;;;6159690;29;20603;-61
2024/03/23 13:30:42;;;;;;;8.48;2.22;;;;;;;;;;6159582;29;20294;-60
2024/03/23 13:33:44;;;;;;;9.23;2.10;;;;;;;;;;6159304;29;20302;-61
2024/03/23 13:36:48;;;;;;;8.15;2.40;;;;;;;;;;6159504;29;20293;-61
2024/03/23 13:39:51;;;;;;;4.47;1.60;;;;;;;;;;6135105;29;20299;-61
2024/03/23 13:42:54;;;;;;;3.17;1.52;;;;;;;;;;6135542;28;20307;-63
2024/03/23 13:45:59;;;;;;;3.03;1.45;;;;;;;;;;6135718;29;20291;-60
2024/03/23 13:49:01;;;;;;;1.88;1.50;;;;;;;;;;6135746;29;20300;-60
2024/03/23 13:52:06;;;;;;;4.40;1.30;;;;;;;;;;6135901;29;20465;-60
2024/03/23 13:55:11;;;;;;;3.80;1.30;;;;;;;;;;6134966;29;20291;-60
2024/03/23 13:58:14;;;;;;;2.58;1.50;;;;;;;;;;6138783;29;20294;-60
2024/03/23 14:01:17;;;;;;;4.93;1.52;;;;;;;;;;6139089;29;20303;-60
2024/03/23 14:04:20;;;;;;;6.38;1.92;;;;;;;;;;6138504;29;20292;-60
2024/03/23 14:07:24;;;;;;;3.42;1.23;;;;;;;;;;6139260;29;20311;-61
2024/03/23 14:10:27;;;;;;;1.67;1.45;;;;;;;;;;6130197;29;20573;-61
2024/03/23 14:13:30;;;;;;;2.33;1.90;;;;;;;;;;6138697;29;20591;-60
2024/03/23 14:16:33;;;;;;;2.03;1.40;;;;;;;;;;6138956;29;20331;-59
2024/03/23 14:19:35;;;;;;;6.22;1.40;;;;;;;;;;6138300;29;20298;-59
2024/03/23 14:22:41;;;;;;;3.75;1.30;;;;;;;;;;6138913;29;20382;-64
2024/03/23 14:25:43;;;;;;;3.83;1.30;;;;;;;;;;6137533;29;20299;-60
2024/03/23 14:28:45;;;;;;;4.43;1.45;;;;;;;;;;6138014;29;20299;-60
2024/03/23 14:31:49;;;;;;;2.58;1.48;;;;;;;;;;6138727;29;20294;-61
2024/03/23 14:34:54;;;;;;;6.10;1.35;;;;;;;;;;6138037;29;20302;-59
2024/03/23 14:37:58;;;;;;;4.60;1.48;;;;;;;;;;6147030;28;20336;-60
2024/03/23 14:41:00;;;;;;;5.25;1.58;;;;;;;;;;6162838;28;20319;-59
2024/03/23 14:44:02;;;;;;;5.75;1.50;;;;;;;;;;6161889;28;20293;-61
2024/03/23 14:47:05;;;;;;;1.30;1.17;;;;;;;;;;6162439;28;20295;-61
2024/03/23 14:50:11;;;;;;;1.52;1.30;;;;;;;;;;6162919;28;20314;-61
2024/03/23 14:53:16;;;;;;;3.67;1.42;;;;;;;;;;6162756;28;20291;-61
2024/03/23 14:56:18;;;;;;;2.88;1.65;;;;;;;;;;6163661;28;20291;-61
2024/03/23 14:59:21;;;;;;;4.53;1.63;;;;;;;;;;6163058;28;20366;-61
2024/03/23 15:02:24;;;;;;;4.40;1.63;;;;;;;;;;6163177;28;20302;-59
2024/03/23 15:05:26;;;;;;;2.15;1.15;;;;;;;;;;6162960;28;20291;-60
2024/03/23 15:08:29;;;;;;;5.68;2.00;;;;;;;;;;6161889;28;20582;-59
2024/03/23 15:11:32;;;;;;;6.45;1.67;;;;;;;;;;6154712;28;20558;-59
2024/03/23 15:14:35;;;;;;;5.53;1.60;;;;;;;;;;6163061;28;20582;-59
2024/03/23 15:17:41;;;;;;;5.32;1.65;;;;;;;;;;6163057;28;20322;-59
2024/03/23 15:20:53;;;;;;;1.45;1.35;;;;;;;;;;6162324;29;20309;-61
2024/03/23 15:23:56;;;;;;;4.20;1.48;;;;;;;;;;6162157;29;20301;-61
2024/03/23 15:26:59;;;;;;;6.95;1.75;;;;;;;;;;6162988;29;20286;-61
2024/03/23 15:30:01;;;;;;;6.20;1.77;;;;;;;;;;6162203;29;20456;-60
2024/03/23 15:33:03;;;;;;;2.53;1.52;;;;;;;;;;6161984;28;20578;-60
2024/03/23 15:36:06;;;;;;;3.13;1.63;;;;;;;;;;6162716;29;20290;-60
2024/03/23 15:39:10;;;;;;;4.90;1.60;;;;;;;;;;6145626;29;20487;-59
2024/03/23 15:42:12;;;;;;;8.43;1.65;;;;;;;;;;6162261;29;20302;-59
2024/03/23 15:45:15;;;;;;;5.50;1.50;;;;;;;;;;6162248;29;20293;-61
2024/03/23 15:48:16;;;;;;;4.20;1.55;;;;;;;;;;6162132;28;20286;-60
2024/03/23 15:51:19;;;;;;;2.72;1.75;;;;;;;;;;6162950;29;20293;-59
2024/03/23 15:54:22;;;;;;;1.63;1.35;;;;;;;;;;6162572;28;20519;-60
2024/03/23 15:57:25;;;;;;;1.48;1.35;;;;;;;;;;6163026;29;20293;-60
2024/03/23 16:00:27;;;;;;;1.92;1.20;;;;;;;;;;6161714;29;20524;-60
2024/03/23 16:03:31;;;;;;;2.92;1.33;;;;;;;;;;6162031;28;20598;-59
2024/03/23 16:06:34;;;;;;;2.70;1.60;;;;;;;;;;6162463;29;20372;-60
2024/03/23 16:09:37;;;;;;;5.15;1.77;;;;;;;;;;6159766;29;20310;-60
2024/03/23 16:12:40;;;;;;;1.60;1.35;;;;;;;;;;6155815;29;20297;-61
2024/03/23 16:15:42;;;;;;;4.03;1.40;;;;;;;;;;6161464;29;20294;-60
2024/03/23 16:18:45;;;;;;;5.40;1.73;;;;;;;;;;6160828;28;20535;-60
2024/03/23 16:21:47;;;;;;;4.57;1.63;;;;;;;;;;6160699;29;20448;-60
2024/03/23 16:24:51;;;;;;;6.65;1.80;;;;;;;;;;6161266;29;20318;-60
2024/03/23 16:27:53;;;;;;;6.95;1.50;;;;;;;;;;6161507;28;20485;-61
2024/03/23 16:30:57;;;;;;;2.17;1.75;;;;;;;;;;6162340;29;20290;-61
2024/03/23 16:34:00;;;;;;;5.93;1.50;;;;;;;;;;6161693;29;20302;-61
2024/03/23 16:37:02;;;;;;;5.35;1.90;;;;;;;;;;6161256;28;20297;-59
2024/03/23 16:40:09;;;;;;;5.22;1.50;;;;;;;;;;6159940;28;20540;-60
2024/03/23 16:43:10;;;;;;;3.85;1.70;;;;;;;;;;6143634;28;20298;-61
2024/03/23 16:46:15;;;;;;;2.65;1.67;;;;;;;;;;6160809;28;20305;-61
2024/03/23 16:49:18;;;;;;;5.75;1.98;;;;;;;;;;6143795;28;20574;-60
2024/03/23 16:52:20;;;;;;;2.55;2.00;;;;;;;;;;6144559;28;20476;-60
2024/03/23 16:55:24;;;;;;;7.20;2.42;;;;;;;;;;6159742;28;20285;-60
2024/03/23 16:58:26;;;;;;;6.50;1.88;;;;;;;;;;6159576;28;20290;-60
2024/03/23 17:01:29;;;;;;;2.38;1.40;;;;;;;;;;6160378;28;20290;-61
2024/03/23 17:04:31;;;;;;;2.67;1.92;;;;;;;;;;6159488;28;20237;-60
2024/03/23 17:07:34;;;;;;;3.63;1.88;;;;;;;;;;6159870;28;20302;-61
2024/03/23 17:10:37;;;;;;;5.32;2.10;;;;;;;;;;6151187;29;20302;-59
2024/03/23 17:13:40;;;;;;;4.47;2.03;;;;;;;;;;6159328;28;20303;-59
2024/03/23 17:16:42;;;;;;;4.72;2.20;;;;;;;;;;6159241;28;20302;-60
2024/03/23 17:19:44;;;;;;;4.43;2.30;;;;;;;;;;6158726;28;20299;-60
2024/03/23 17:22:53;;;;;;;5.80;2.30;;;;;;;;;;6158934;28;20480;-60
2024/03/23 17:25:58;;;;;;;6.13;1.83;;;;;;;;;;6159559;28;20290;-59
2024/03/23 17:29:00;;;;;;;1.90;1.65;;;;;;;;;;6158895;28;20310;-61
2024/03/23 17:32:03;;;;;;;4.97;1.77;;;;;;;;;;6161989;28;20297;-61
2024/03/23 17:35:06;;;;;;;5.35;2.40;;;;;;;;;;6163869;28;20298;-61
2024/03/23 17:38:08;;;;;;;5.45;2.38;;;;;;;;;;6163242;28;20559;-60
2024/03/23 17:41:12;;;;;;;6.72;2.22;;;;;;;;;;6163582;28;20294;-60
2024/03/23 17:44:15;;;;;;;4.63;2.25;;;;;;;;;;6163573;28;20594;-61
2024/03/23 17:47:17;;;;;;;4.38;3.00;;;;;;;;;;6163735;28;20297;-60
2024/03/23 17:50:20;;;;;;;6.72;4.50;;;;;;;;;;6162927;28;20362;-60
2024/03/23 17:53:22;;;;;;;8.43;3.80;;;;;;;;;;6162650;28;20328;-61
2024/03/23 17:56:26;;;;;;;7.15;3.72;;;;;;;;;;6163301;28;20302;-60
2024/03/23 17:59:28;;;;;;;7.68;4.00;;;;;;;;;;6163338;28;20286;-60
2024/03/23 18:02:31;;;;;;;6.60;3.30;;;;;;;;;;6163346;28;20289;-61
2024/03/23 18:05:34;;;;;;;9.70;2.80;;;;;;;;;;6146917;28;20290;-60
2024/03/23 18:08:36;;;;;;;8.68;2.97;;;;;;;;;;6162819;28;20474;-60
2024/03/23 18:11:41;;;;;;;5.73;2.13;;;;;;;;;;6144826;28;20606;-59